createdAt,value
2022-08-16T00:07:22.485Z,1002.82
2022-08-16T00:22:25.152Z,1002.79
2022-08-16T00:37:24.593Z,1002.89
2022-08-16T00:52:30.384Z,1002.85
2022-08-16T01:07:22.526Z,1002.77
2022-08-16T01:22:58.952Z,1002.86
2022-08-16T01:37:22.538Z,1002.89
2022-08-16T01:52:28.105Z,1002.89
2022-08-16T02:07:23.457Z,1002.94
2022-08-16T02:22:34.072Z,1002.99
2022-08-16T02:37:22.557Z,1002.95
2022-08-16T02:52:24.971Z,1002.92
2022-08-16T03:07:27.612Z,1002.83
2022-08-16T03:22:28.649Z,1002.94
2022-08-16T03:37:22.491Z,1002.99
2022-08-16T03:52:23.474Z,1002.96
2022-08-16T04:07:22.853Z,1003.14
2022-08-16T04:22:22.518Z,1003.29
2022-08-16T04:37:22.654Z,1003.35
2022-08-16T04:52:33.268Z,1003.48
2022-08-16T05:07:22.571Z,1003.60
2022-08-16T05:22:22.753Z,1003.77
2022-08-16T05:37:24.559Z,1003.74
2022-08-16T05:52:22.642Z,1003.76
2022-08-16T06:21:01.760Z,1003.72
2022-08-16T06:36:01.782Z,1004.04
2022-08-16T06:51:01.966Z,1003.89
2022-08-16T07:06:01.920Z,1003.91
2022-08-16T07:21:02.419Z,1004.19
2022-08-16T07:36:02.171Z,1004.27
2022-08-16T07:51:06.886Z,1004.26
2022-08-16T08:06:02.098Z,1004.47
2022-08-16T08:21:02.220Z,1004.68
2022-08-16T08:36:02.199Z,1004.52
2022-08-16T08:51:02.857Z,1004.67
2022-08-16T09:06:02.233Z,1004.75
2022-08-16T09:21:02.371Z,1004.73
2022-08-16T09:36:02.419Z,1004.68
2022-08-16T09:51:02.345Z,1004.55
2022-08-16T10:06:02.741Z,1004.64
2022-08-16T10:21:02.482Z,1004.60
2022-08-16T10:36:03.655Z,1004.57
2022-08-16T10:51:02.719Z,1004.64
2022-08-16T11:06:05.945Z,1004.62
2022-08-16T11:21:03.118Z,1004.62
2022-08-16T11:36:28.544Z,1004.62
2022-08-16T11:51:03.480Z,1004.72
2022-08-16T12:06:03.368Z,1004.57
2022-08-16T12:21:03.829Z,1004.68
2022-08-16T12:36:03.482Z,1004.62
2022-08-16T12:51:03.947Z,1004.69
2022-08-16T13:06:03.537Z,1004.79
2022-08-16T13:21:03.692Z,1004.86
2022-08-16T13:36:03.659Z,1004.80
2022-08-16T13:51:04.231Z,1004.65
2022-08-16T14:06:03.689Z,1004.64
2022-08-16T14:21:03.700Z,1004.71
2022-08-16T14:36:03.762Z,1004.72
2022-08-16T14:51:03.691Z,1004.73
2022-08-16T15:06:03.750Z,1004.69
2022-08-16T15:21:04.484Z,1004.68
2022-08-16T15:36:03.705Z,1004.66
2022-08-16T15:51:03.975Z,1004.65
2022-08-16T16:06:04.029Z,1004.63
2022-08-16T16:21:03.841Z,1004.69
2022-08-16T16:36:03.856Z,1004.67
2022-08-16T16:51:07.318Z,1004.63
2022-08-16T17:06:10.129Z,1004.54
2022-08-16T17:21:04.061Z,1004.61
2022-08-16T17:36:08.539Z,1004.66
2022-08-16T17:51:04.095Z,1004.78
2022-08-16T18:06:04.217Z,1004.74
2022-08-16T18:21:04.231Z,1004.96
2022-08-16T18:36:04.503Z,1005.07
2022-08-16T18:51:08.414Z,1005.21
2022-08-16T19:06:04.631Z,1005.23
2022-08-16T19:21:04.451Z,1005.44
2022-08-16T19:36:04.575Z,1005.52
2022-08-16T19:51:04.602Z,1005.66
2022-08-16T20:06:05.577Z,1005.82
2022-08-16T20:21:04.557Z,1006.00
2022-08-16T20:36:04.459Z,1006.12
2022-08-16T20:51:04.602Z,1006.15
2022-08-16T21:06:04.692Z,1006.22
2022-08-16T21:21:04.737Z,1006.26
2022-08-16T21:36:04.865Z,1006.26
2022-08-16T21:51:05.056Z,1006.17
2022-08-16T22:06:12.976Z,1006.22
2022-08-16T22:21:04.988Z,1006.11
2022-08-16T22:36:05.037Z,1006.28
2022-08-16T22:51:05.005Z,1006.29
2022-08-16T23:06:05.041Z,1006.23
2022-08-16T23:21:05.092Z,1006.13
2022-08-16T23:36:04.943Z,1006.10
2022-08-16T23:51:05.198Z,1005.96
